Time;durP1;ratioP1;P1;durP2;ratioP2;P2;SDS_P1;SDS_P2;PMS_P1;PMS_P2;Temp;Humidity;BMP_temperature;BMP_pressure;BME280_temperature;BME280_humidity;BME280_pressure;Samples;Min_cycle;Max_cycle;Signal;HPM_P1;HPM_P2
2022/06/12 00:01:51;;;;;;;9.43;7.70;;;;;;;18.22;100.00;98688.75;4978451;28;20230;-82
2022/06/12 00:04:17;;;;;;;10.47;7.47;;;;;;;18.04;100.00;98679.34;4978203;28;20668;-82
2022/06/12 00:06:43;;;;;;;8.97;7.20;;;;;;;18.49;100.00;98750.34;4980057;28;20652;-83
2022/06/12 00:09:08;;;;;;;8.63;7.10;;;;;;;18.40;100.00;98739.19;4979867;28;20205;-82
2022/06/12 00:11:34;;;;;;;10.10;7.00;;;;;;;17.78;100.00;98634.00;4981089;28;20731;-82
2022/06/12 00:14:04;;;;;;;9.97;7.13;;;;;;;18.59;100.00;98759.78;4986084;28;20211;-82
2022/06/12 00:16:32;;;;;;;9.87;7.37;;;;;;;18.62;100.00;98758.91;4981935;28;20164;-83
2022/06/12 00:18:59;;;;;;;8.67;6.73;;;;;;;18.44;100.00;98746.88;4979805;28;20175;-82
2022/06/12 00:21:25;;;;;;;8.50;6.80;;;;;;;16.91;100.00;98487.88;4981320;28;20164;-82
2022/06/12 00:23:55;;;;;;;8.80;6.80;;;;;;;18.66;100.00;98764.03;4983104;28;20168;-84
2022/06/12 00:26:34;;;;;;;9.83;6.73;;;;;;;18.58;100.00;98754.63;4982885;28;20207;-84
2022/06/12 00:29:07;;;;;;;10.90;6.43;;;;;;;17.86;100.00;98655.38;4992987;28;20241;-84
2022/06/12 00:31:35;;;;;;;8.77;6.27;;;;;;;17.24;100.00;98530.59;4998892;28;20241;-84
2022/06/12 00:34:02;;;;;;;8.23;6.40;;;;;;;17.47;100.00;98581.84;4983072;28;20176;-84
2022/06/12 00:36:27;;;;;;;7.50;6.30;;;;;;;17.15;100.00;98532.25;4980295;28;20179;-84
2022/06/12 00:38:53;;;;;;;7.10;6.40;;;;;;;17.33;100.00;98553.63;4980032;28;20168;-84
2022/06/12 00:41:18;;;;;;;9.50;6.20;;;;;;;18.11;100.00;98685.31;4980252;28;20172;-84
2022/06/12 00:43:44;;;;;;;9.27;6.40;;;;;;;18.05;100.00;98703.22;4979779;28;20168;-84
2022/06/12 00:46:38;;;;;;;8.00;6.17;;;;;;;17.94;100.00;98667.34;4979187;28;20172;-85
2022/06/12 00:49:27;;;;;;;9.57;6.37;;;;;;;18.32;100.00;98735.75;4979158;28;20191;-83
2022/06/12 00:52:18;;;;;;;7.97;6.23;;;;;;;18.32;100.00;98734.06;4987681;28;20168;-83
2022/06/12 00:54:46;;;;;;;8.00;6.30;;;;;;;18.28;100.00;98734.88;4904375;29;20234;-86
2022/06/12 00:57:12;;;;;;;8.10;6.10;;;;;;;18.33;100.00;98753.69;4901121;29;20202;-86
2022/06/12 00:59:43;;;;;;;8.73;6.43;;;;;;;18.36;100.00;98742.59;4900942;29;20326;-86
2022/06/12 01:02:13;;;;;;;10.10;6.43;;;;;;;18.26;100.00;98745.16;4912297;29;20377;-86
2022/06/12 01:07:27;;;;;;;8.20;6.27;;;;;;;18.22;100.00;98722.06;4920743;29;20189;-85
2022/06/12 01:09:56;;;;;;;9.43;6.07;;;;;;;17.90;100.00;98669.91;4921427;29;20349;-86
2022/06/12 01:12:26;;;;;;;8.37;6.50;;;;;;;18.03;100.00;98705.78;4921137;29;20622;-86
2022/06/12 01:14:59;;;;;;;8.37;5.73;;;;;;;18.03;100.00;98694.69;4903941;29;20178;-86
2022/06/12 01:17:26;;;;;;;8.67;5.93;;;;;;;17.61;100.00;98649.31;4920806;29;20185;-87
2022/06/12 01:19:58;;;;;;;9.13;6.23;;;;;;;18.14;100.00;98716.94;4921472;29;20613;-85
2022/06/12 01:22:38;;;;;;;11.93;6.60;;;;;;;18.16;100.00;98715.22;4922593;29;20319;-85
2022/06/12 01:25:22;;;;;;;8.67;6.23;;;;;;;18.03;100.00;98716.03;4921354;29;20281;-85
2022/06/12 01:27:56;;;;;;;8.40;6.03;;;;;;;18.03;100.00;98723.72;4920649;29;20590;-84
2022/06/12 01:30:30;;;;;;;10.47;6.30;;;;;;;18.03;100.00;98720.28;4920681;29;20185;-84
2022/06/12 01:33:07;;;;;;;8.03;5.67;;;;;;;17.70;100.00;98667.28;4992771;28;20174;-84
2022/06/12 01:35:46;;;;;;;10.00;6.43;;;;;;;18.09;100.00;98718.63;4999416;28;20159;-84
2022/06/12 01:38:17;;;;;;;8.90;6.87;;;;;;;18.17;100.00;98716.94;4998920;28;20167;-85
2022/06/12 01:41:24;;;;;;;9.90;6.60;;;;;;;18.13;100.00;98720.31;5012985;28;20255;-85
2022/06/12 01:44:05;;;;;;;8.97;7.00;;;;;;;17.68;100.00;98668.97;4920481;29;20340;-86
2022/06/12 01:47:08;;;;;;;10.53;6.87;;;;;;;17.61;100.00;98662.97;4920101;29;20194;-86
2022/06/12 01:49:48;;;;;;;8.33;6.20;;;;;;;17.69;100.00;98673.22;4864201;29;20321;-85
2022/06/12 01:52:28;;;;;;;8.53;6.53;;;;;;;17.69;100.00;98696.25;4861754;29;20730;-86
2022/06/12 01:55:13;;;;;;;9.30;6.93;;;;;;;17.98;100.00;98715.19;4862184;29;20188;-85
2022/06/12 01:57:48;;;;;;;9.83;7.00;;;;;;;17.86;100.00;98720.25;4862255;29;20204;-85
2022/06/12 02:00:22;;;;;;;10.60;7.23;;;;;;;17.47;100.00;98636.44;4862782;29;20191;-85
2022/06/12 02:02:50;;;;;;;10.37;7.67;;;;;;;18.06;100.00;98733.13;4863540;29;20227;-84
2022/06/12 02:05:16;;;;;;;10.90;7.17;;;;;;;17.86;100.00;98732.19;4863791;29;20172;-84
2022/06/12 02:07:50;;;;;;;8.57;6.97;;;;;;;17.91;100.00;98727.97;4863756;29;20206;-84
2022/06/12 02:10:24;;;;;;;10.40;7.50;;;;;;;17.24;100.00;98634.63;4866708;29;20207;-84
2022/06/12 02:13:16;;;;;;;11.43;7.40;;;;;;;17.96;100.00;98721.16;4865513;29;20191;-84
2022/06/12 02:15:48;;;;;;;10.43;7.50;;;;;;;18.09;100.00;98723.75;4865097;29;20176;-84
2022/06/12 02:18:25;;;;;;;12.00;7.83;;;;;;;18.10;100.00;98737.41;4865227;29;20187;-84
2022/06/12 02:21:08;;;;;;;8.97;7.00;;;;;;;17.79;100.00;98702.28;4938896;29;20218;-84
2022/06/12 02:24:02;;;;;;;9.63;6.90;;;;;;;17.80;100.00;98727.06;4937434;29;20661;-84
2022/06/12 02:26:49;;;;;;;9.47;7.27;;;;;;;17.78;100.00;98741.53;4901656;29;20608;-84
2022/06/12 02:29:21;;;;;;;11.23;8.00;;;;;;;17.32;100.00;98668.78;4919566;29;21475;-84
2022/06/12 02:31:49;;;;;;;13.07;8.13;;;;;;;17.05;100.00;98644.78;4922334;29;20197;-83
2022/06/12 02:34:25;;;;;;;12.53;8.50;;;;;;;17.11;100.00;98644.78;4921805;29;20177;-83
2022/06/12 02:36:57;;;;;;;11.30;8.20;;;;;;;17.72;100.00;98742.38;4923852;29;20186;-84
2022/06/12 02:39:26;;;;;;;13.27;9.60;;;;;;;17.79;100.00;98744.13;4924043;29;20178;-82
2022/06/12 02:41:58;;;;;;;13.27;8.93;;;;;;;17.56;100.00;98691.94;4926127;29;20241;-82
2022/06/12 02:44:44;;;;;;;13.53;9.30;;;;;;;17.80;100.00;98727.88;4926527;29;20204;-83
2022/06/12 02:47:16;;;;;;;12.10;9.13;;;;;;;17.77;100.00;98727.91;4925780;29;20229;-81
2022/06/12 02:49:44;;;;;;;12.83;8.80;;;;;;;17.80;100.00;98725.31;4930403;29;20233;-81
2022/06/12 02:52:09;;;;;;;13.33;9.30;;;;;;;17.70;100.00;98741.50;4940979;29;20169;-79
2022/06/12 02:54:56;;;;;;;13.53;9.30;;;;;;;17.80;100.00;98735.56;4924363;29;20174;-82
2022/06/12 02:57:39;;;;;;;13.37;9.20;;;;;;;17.81;100.00;98727.06;4916569;29;20197;-84
2022/06/12 03:00:09;;;;;;;12.30;9.03;;;;;;;17.83;100.00;98727.91;4904479;29;20219;-85
2022/06/12 03:02:55;;;;;;;13.00;9.83;;;;;;;17.78;100.00;98727.03;4911001;28;20309;-84
2022/06/12 03:05:31;;;;;;;12.87;9.50;;;;;;;17.07;100.00;98609.81;4976313;28;20176;-85
2022/06/12 03:08:06;;;;;;;12.53;9.53;;;;;;;17.37;100.00;98659.41;4988136;28;20675;-82
2022/06/12 03:10:37;;;;;;;13.27;9.10;;;;;;;17.89;100.00;98732.19;4997787;28;20554;-84
2022/06/12 03:13:05;;;;;;;12.20;9.20;;;;;;;17.96;100.00;98729.69;4998147;28;20191;-84
2022/06/12 03:15:39;;;;;;;13.47;9.13;;;;;;;17.96;100.00;98729.69;4994832;28;20178;-83
2022/06/12 03:18:09;;;;;;;10.97;8.57;;;;;;;17.90;100.00;98718.56;4994743;28;20170;-82
2022/06/12 03:20:52;;;;;;;13.23;8.47;;;;;;;17.56;100.00;98656.97;5005686;28;20166;-81
2022/06/12 03:23:50;;;;;;;13.33;9.10;;;;;;;17.43;100.00;98641.53;5007785;28;20227;-81
2022/06/12 03:26:30;;;;;;;12.60;8.90;;;;;;;17.73;100.00;98686.91;5005697;28;20230;-82
2022/06/12 03:29:34;;;;;;;11.90;8.20;;;;;;;17.83;100.00;98721.91;4991046;28;20198;-82
2022/06/12 03:32:19;;;;;;;13.77;8.57;;;;;;;17.78;100.00;98711.69;4967547;29;20211;-82
2022/06/12 03:34:59;;;;;;;11.20;8.50;;;;;;;17.69;100.00;98697.13;4967933;29;20695;-81
2022/06/12 03:37:25;;;;;;;13.43;8.97;;;;;;;17.99;100.00;98724.53;4966434;29;20188;-86
2022/06/12 03:40:15;;;;;;;11.17;8.77;;;;;;;17.77;100.00;98660.47;4960830;29;20177;-82
2022/06/12 03:42:50;;;;;;;10.80;9.00;;;;;;;18.13;100.00;98729.72;4961614;29;20188;-82
2022/06/12 03:45:22;;;;;;;11.27;8.57;;;;;;;17.63;100.00;98670.66;4962696;29;20164;-81
2022/06/12 03:47:54;;;;;;;13.03;9.63;;;;;;;17.05;100.00;98575.72;4956059;29;20205;-82
2022/06/12 03:50:38;;;;;;;13.33;9.37;;;;;;;18.08;100.00;98727.16;4955610;29;20199;-83
2022/06/12 03:53:06;;;;;;;11.47;9.00;;;;;;;18.14;100.00;98739.97;4959300;29;20181;-83
2022/06/12 03:58:31;;;;;;;10.93;8.10;;;;;;;17.84;100.00;98688.66;4958589;29;20172;-82
2022/06/12 04:00:58;;;;;;;11.17;8.17;;;;;;;18.10;100.00;98728.00;4956597;29;20173;-81
2022/06/12 04:03:34;;;;;;;11.53;8.40;;;;;;;17.92;100.00;98674.16;4955510;29;20276;-82
2022/06/12 04:06:03;;;;;;;12.53;8.33;;;;;;;18.23;100.00;98731.47;4954423;29;20184;-82
2022/06/12 04:08:46;;;;;;;11.43;8.83;;;;;;;18.41;100.00;98736.63;4972545;28;20217;-82
2022/06/12 04:11:14;;;;;;;11.53;8.27;;;;;;;18.17;100.00;98718.63;4976109;28;20188;-81
2022/06/12 04:13:42;;;;;;;11.97;8.77;;;;;;;18.21;100.00;98690.44;4975342;28;20215;-81
2022/06/12 04:16:15;;;;;;;10.80;8.33;;;;;;;17.94;100.00;98649.41;4974184;28;20164;-82
2022/06/12 04:18:40;;;;;;;13.80;9.03;;;;;;;18.48;100.00;98727.28;4973913;28;20163;-82
2022/06/12 04:21:27;;;;;;;11.00;8.03;;;;;;;18.14;100.00;98675.94;4974846;28;20186;-82
2022/06/12 04:23:53;;;;;;;12.13;8.63;;;;;;;18.49;100.00;98727.25;4973467;28;20164;-83
2022/06/12 04:26:21;;;;;;;12.57;8.37;;;;;;;18.38;100.00;98730.63;4973496;28;20218;-83
2022/06/12 04:28:55;;;;;;;12.90;8.90;;;;;;;18.57;100.00;98728.13;4974198;28;20727;-82
2022/06/12 04:31:21;;;;;;;13.50;9.07;;;;;;;18.37;100.00;98703.31;4973486;28;20191;-83
2022/06/12 04:33:56;;;;;;;11.43;9.17;;;;;;;18.55;100.00;98734.09;4974719;28;20168;-83
2022/06/12 04:36:22;;;;;;;11.67;9.43;;;;;;;18.75;100.00;98742.69;4974828;28;20152;-83
2022/06/12 04:38:48;;;;;;;11.63;9.20;;;;;;;18.13;100.00;98694.72;4975640;28;20161;-86
2022/06/12 04:41:29;;;;;;;11.70;9.23;;;;;;;18.55;100.00;98744.38;4977019;28;20187;-84
2022/06/12 04:43:54;;;;;;;12.33;9.40;;;;;;;18.56;100.00;98751.22;4974477;28;20164;-82
2022/06/12 04:46:21;;;;;;;12.23;9.87;;;;;;;18.20;100.00;98691.31;4973839;28;20170;-83
2022/06/12 04:48:49;;;;;;;12.70;9.50;;;;;;;18.60;100.00;98751.22;4973893;28;20263;-83
2022/06/12 04:51:16;;;;;;;13.20;9.77;;;;;;;18.11;100.00;98675.91;4975840;28;20184;-84
2022/06/12 04:53:44;;;;;;;14.30;10.33;;;;;;;18.63;100.00;98758.91;4978389;28;20180;-82
2022/06/12 04:56:11;;;;;;;11.70;8.47;;;;;;;15.88;100.00;98302.59;4979201;28;20172;-83
2022/06/12 04:58:38;;;;;;;11.13;8.53;;;;;;;18.57;100.00;98760.63;4979822;28;20243;-82
2022/06/12 05:01:04;;;;;;;12.83;9.57;;;;;;;18.69;100.00;98768.31;4979641;28;20180;-82
2022/06/12 05:03:30;;;;;;;14.43;10.03;;;;;;;18.83;100.00;98769.19;4977653;28;20175;-83
2022/06/12 05:05:56;;;;;;;14.53;9.97;;;;;;;18.13;100.00;98663.97;4977810;28;20180;-82
2022/06/12 05:08:23;;;;;;;11.57;9.77;;;;;;;17.45;100.00;98533.22;4982999;28;20196;-83
2022/06/12 05:10:48;;;;;;;12.23;10.13;;;;;;;18.68;100.00;98781.97;4984764;28;20168;-81
2022/06/12 05:13:14;;;;;;;13.67;10.37;;;;;;;18.75;100.00;98778.59;5000591;28;20195;-83
2022/06/12 05:15:40;;;;;;;12.63;10.07;;;;;;;18.74;100.00;98787.97;4980965;28;20238;-83
2022/06/12 05:18:07;;;;;;;13.27;10.30;;;;;;;18.12;100.00;98681.91;4980044;28;20172;-83
2022/06/12 05:20:35;;;;;;;14.20;10.20;;;;;;;18.10;100.00;98674.19;4984176;28;20174;-84
2022/06/12 05:23:03;;;;;;;13.63;10.67;;;;;;;17.92;100.00;98628.06;4983919;28;20250;-84
2022/06/12 05:25:30;;;;;;;13.83;10.43;;;;;;;18.98;100.00;98796.56;4979126;28;20179;-86
2022/06/12 05:27:56;;;;;;;14.90;10.00;;;;;;;19.01;100.00;98822.22;4985823;28;20218;-85
2022/06/12 05:30:25;;;;;;;12.13;9.73;;;;;;;18.98;100.00;98809.41;4984523;28;20176;-84
2022/06/12 05:32:53;;;;;;;13.23;9.90;;;;;;;19.11;100.00;98814.53;4982711;28;20185;-85
2022/06/12 05:35:20;;;;;;;14.67;9.90;;;;;;;16.64;100.00;98411.09;4980303;28;20683;-85
2022/06/12 05:37:46;;;;;;;13.30;9.70;;;;;;;17.18;100.00;98465.78;4976627;28;20176;-86
2022/06/12 05:40:18;;;;;;;14.37;9.37;;;;;;;18.79;100.00;98752.94;4978119;28;20171;-85
2022/06/12 05:42:44;;;;;;;11.30;8.93;;;;;;;19.20;100.00;98799.09;4980185;28;20187;-87
2022/06/12 05:45:23;;;;;;;12.00;9.10;;;;;;;17.63;100.00;98568.28;4996303;28;20179;-85
2022/06/12 05:48:08;;;;;;;13.50;9.27;;;;;;;15.84;100.00;98260.91;4999242;28;20156;-85
2022/06/12 05:50:36;;;;;;;12.50;9.80;;;;;;;15.73;100.00;98247.25;5000828;28;20176;-85
2022/06/12 05:53:02;;;;;;;12.17;9.60;;;;;;;17.78;100.00;98565.75;5000719;28;20156;-84
2022/06/12 05:55:28;;;;;;;13.57;10.30;;;;;;;18.18;100.00;98582.84;4986019;28;20272;-85
2022/06/12 05:57:54;;;;;;;11.50;9.43;;;;;;;17.21;100.00;98468.34;4984407;28;20164;-85
2022/06/12 06:00:24;;;;;;;11.57;9.73;;;;;;;17.41;100.00;98441.97;4961012;28;20172;-86
2022/06/12 06:02:50;;;;;;;11.67;9.17;;;;;;;17.34;100.00;98431.69;4978640;28;20321;-84
2022/06/12 06:05:16;;;;;;;10.90;9.10;;;;;;;18.53;100.00;98594.84;4963749;28;20176;-84
2022/06/12 06:07:42;;;;;;;11.57;9.83;;;;;;;19.89;100.00;98823.00;4982212;28;20192;-86
2022/06/12 06:10:14;;;;;;;12.57;9.07;;;;;;;16.83;100.00;98300.38;4984478;28;20215;-84
2022/06/12 06:12:40;;;;;;;12.33;9.60;;;;;;;18.45;100.00;98564.06;4982004;28;20645;-84
2022/06/12 06:15:06;;;;;;;12.80;8.83;;;;;;;16.89;100.00;98261.19;4992629;28;20194;-84
2022/06/12 06:17:32;;;;;;;10.90;8.80;;;;;;;17.17;100.00;98316.56;5008746;28;20194;-84
2022/06/12 06:19:57;;;;;;;12.60;9.73;;;;;;;17.76;100.00;98434.31;5008257;28;20187;-84
2022/06/12 06:22:22;;;;;;;11.63;9.80;;;;;;;20.27;100.00;98830.63;5006148;28;20183;-82
2022/06/12 06:24:48;;;;;;;11.83;10.07;;;;;;;19.64;100.00;98758.00;5002805;28;20205;-84
2022/06/12 06:27:15;;;;;;;12.87;9.57;;;;;;;17.52;100.00;98413.81;5002432;28;20186;-84
2022/06/12 06:29:41;;;;;;;12.13;9.90;;;;;;;19.71;100.00;98733.16;5000341;28;20218;-84
2022/06/12 06:32:08;;;;;;;11.87;9.70;;;;;;;18.99;100.00;98603.28;5001851;28;20191;-84
2022/06/12 06:34:35;;;;;;;13.63;10.20;;;;;;;19.52;100.00;98693.00;5002668;28;20186;-85
2022/06/12 06:37:00;;;;;;;12.40;10.00;;;;;;;19.62;100.00;98730.63;5002802;28;20185;-83
2022/06/12 06:39:26;;;;;;;13.37;10.03;;;;;;;19.60;100.00;98717.78;5004979;28;20211;-83
2022/06/12 06:41:52;;;;;;;11.37;10.00;;;;;;;20.29;100.00;98828.91;5005446;28;20210;-84
2022/06/12 06:47:02;;;;;;;12.17;10.43;;;;;;;19.53;100.00;98715.25;5004587;28;20198;-83
2022/06/12 06:49:28;;;;;;;12.57;10.70;;;;;;;20.03;100.00;98857.22;5005974;28;20191;-83
2022/06/12 06:51:53;;;;;;;12.67;10.33;;;;;;;19.47;100.00;98787.16;5010641;28;20183;-84
2022/06/12 06:54:19;;;;;;;12.73;10.63;;;;;;;19.73;100.00;98805.91;5005007;28;20191;-85
2022/06/12 06:56:45;;;;;;;13.97;11.17;;;;;;;19.82;100.00;98818.75;5003979;28;20187;-84
2022/06/12 06:59:10;;;;;;;13.17;11.00;;;;;;;17.86;100.00;98502.59;5005093;28;20716;-84
2022/06/12 07:01:36;;;;;;;14.10;11.40;;;;;;;19.41;100.00;98763.22;5003122;28;20605;-85
2022/06/12 07:04:02;;;;;;;12.93;11.50;;;;;;;19.87;100.00;98886.38;5003007;28;20190;-84
2022/06/12 07:06:28;;;;;;;14.67;11.63;;;;;;;19.70;100.00;98804.22;5003850;28;20179;-84
2022/06/12 07:08:55;;;;;;;14.47;11.40;;;;;;;19.58;100.00;98803.41;5003007;28;20203;-85
2022/06/12 07:11:23;;;;;;;14.43;11.10;;;;;;;20.09;100.00;98884.63;5009569;28;20699;-84
2022/06/12 07:13:49;;;;;;;16.30;11.80;;;;;;;19.61;100.00;98785.41;4987327;28;20274;-85
2022/06/12 07:16:21;;;;;;;14.03;11.20;;;;;;;18.04;100.00;98561.50;5007074;28;20187;-83
2022/06/12 07:18:47;;;;;;;14.37;12.10;;;;;;;17.06;100.00;98410.34;4964618;28;20200;-83
2022/06/12 07:21:12;;;;;;;14.77;12.33;;;;;;;20.06;100.00;98864.94;4961567;28;20569;-84
2022/06/12 07:23:40;;;;;;;14.37;11.17;;;;;;;18.46;100.00;98570.03;4964530;29;20180;-85
2022/06/12 07:26:09;;;;;;;13.60;11.30;;;;;;;17.52;100.00;98441.97;4967461;29;20193;-84
2022/06/12 07:28:36;;;;;;;13.60;11.30;;;;;;;19.61;100.00;98764.88;4967506;28;20264;-84
2022/06/12 07:31:04;;;;;;;13.17;9.80;;;;;;;16.67;100.00;98283.31;4973014;28;20197;-84
2022/06/12 07:33:29;;;;;;;14.20;11.23;;;;;;;16.91;100.00;98308.91;4976498;28;20165;-86
2022/06/12 07:35:55;;;;;;;13.77;11.07;;;;;;;18.78;100.00;98606.78;4963579;29;20188;-86
2022/06/12 07:38:23;;;;;;;13.40;11.10;;;;;;;18.30;100.00;98543.56;4958251;29;20181;-87
2022/06/12 07:40:53;;;;;;;15.23;11.40;;;;;;;16.82;100.00;98288.44;4943550;28;20181;-85
2022/06/12 07:43:20;;;;;;;15.03;11.87;;;;;;;17.09;100.00;98364.31;4959962;28;20242;-85
2022/06/12 07:45:46;;;;;;;14.70;11.60;;;;;;;20.00;100.00;98865.81;4984621;28;20172;-84
2022/06/12 07:48:12;;;;;;;14.23;10.70;;;;;;;18.57;100.00;98646.09;4982806;28;20172;-87
2022/06/12 07:50:40;;;;;;;14.03;11.33;;;;;;;19.13;100.00;98778.59;4980406;28;20632;-88
2022/06/12 07:53:06;;;;;;;15.37;11.60;;;;;;;19.72;100.00;98861.56;4980581;28;20262;-87
2022/06/12 07:55:32;;;;;;;15.40;11.80;;;;;;;17.73;100.00;98536.72;4997518;28;20182;-87
2022/06/12 07:57:57;;;;;;;13.17;11.57;;;;;;;17.20;100.00;98451.28;4998499;28;20172;-87
2022/06/12 08:00:24;;;;;;;15.17;12.50;;;;;;;17.49;100.00;98494.00;4997759;28;20185;-88
2022/06/12 08:02:49;;;;;;;14.83;11.50;;;;;;;19.98;100.00;98882.94;4980000;28;20227;-88
2022/06/12 08:05:17;;;;;;;13.53;11.23;;;;;;;19.93;100.00;98879.53;4997303;28;20182;-87
2022/06/12 08:07:43;;;;;;;14.27;11.70;;;;;;;17.31;100.00;98444.47;4999900;28;20190;-89
2022/06/12 08:10:10;;;;;;;11.93;9.63;;;;;;;18.32;100.00;98633.25;4980970;28;20195;-88
2022/06/12 08:12:37;;;;;;;12.33;10.73;;;;;;;20.09;100.00;98898.34;4998906;28;20167;-89
2022/06/12 08:15:06;;;;;;;13.07;10.20;;;;;;;19.50;100.00;98797.44;4999311;28;20171;-88
2022/06/12 08:17:31;;;;;;;12.70;9.80;;;;;;;18.27;100.00;98659.72;4997768;28;20175;-88
2022/06/12 08:22:41;;;;;;;10.47;9.13;;;;;;;18.64;100.00;98717.03;4998774;28;20194;-89
2022/06/12 08:25:07;;;;;;;11.37;9.03;;;;;;;19.89;100.00;98905.22;4998956;28;20580;-88
2022/06/12 08:27:32;;;;;;;12.10;8.93;;;;;;;17.48;100.00;98501.66;4999087;28;20229;-87
2022/06/12 08:29:58;;;;;;;10.30;8.77;;;;;;;18.07;100.00;98582.00;4989699;28;20191;-88
2022/06/12 08:32:23;;;;;;;11.40;8.90;;;;;;;18.61;100.00;98708.47;5000591;28;20191;-89
2022/06/12 08:34:57;;;;;;;9.90;8.10;;;;;;;15.90;100.00;98283.88;4999357;28;20199;-88
2022/06/12 08:37:26;;;;;;;10.10;8.40;;;;;;;17.49;100.00;98534.09;4999502;28;20191;-89
2022/06/12 08:39:52;;;;;;;10.23;8.63;;;;;;;18.44;100.00;98664.00;4984575;28;20210;-89
2022/06/12 08:42:34;;;;;;;10.70;8.73;;;;;;;20.16;100.00;98915.44;5006034;28;20191;-89
2022/06/12 08:45:30;;;;;;;10.60;8.00;;;;;;;16.63;100.00;98352.28;4983372;28;20655;-90
2022/06/12 08:48:09;;;;;;;11.47;9.40;;;;;;;18.21;100.00;98587.97;4922324;29;20201;-88
2022/06/12 08:50:40;;;;;;;11.03;8.43;;;;;;;20.30;100.00;98924.00;4925110;29;20185;-89
2022/06/12 08:53:15;;;;;;;11.47;8.73;;;;;;;20.08;100.00;98922.31;4932338;29;20265;-88
2022/06/12 08:56:02;;;;;;;10.93;8.47;;;;;;;18.54;100.00;98640.97;4921382;29;20354;-89
2022/06/12 08:58:45;;;;;;;11.93;9.27;;;;;;;20.27;100.00;98928.31;4927467;29;20246;-89
2022/06/12 09:01:11;;;;;;;11.20;9.37;;;;;;;18.95;100.00;98717.03;4924109;29;20248;-89
2022/06/12 09:03:40;;;;;;;12.87;8.53;;;;;;;19.40;100.00;98819.66;4931793;29;20213;-88
2022/06/12 09:06:30;;;;;;;13.00;10.07;;;;;;;20.26;100.00;98922.31;4921013;29;20770;-88
2022/06/12 09:09:01;;;;;;;12.27;10.17;;;;;;;20.28;100.00;98925.72;4938974;29;20213;-89
2022/06/12 09:11:36;;;;;;;14.17;10.50;;;;;;;20.72;100.00;98929.84;4920795;29;20319;-89
2022/06/12 09:14:12;;;;;;;14.30;11.20;;;;;;;20.63;100.00;98935.91;4929547;29;20220;-89
2022/06/12 09:17:15;;;;;;;15.37;11.50;;;;;;;20.68;100.00;98936.75;4932257;29;20197;-87
2022/06/12 09:19:59;;;;;;;13.60;10.47;;;;;;;21.11;100.00;98943.44;4929931;29;20191;-88
2022/06/12 09:22:42;;;;;;;11.83;10.37;;;;;;;20.94;100.00;98940.06;4907763;29;20276;-88
2022/06/12 09:25:37;;;;;;;12.43;10.17;;;;;;;20.50;100.00;98896.53;4979285;28;20648;-90
2022/06/12 09:28:11;;;;;;;14.50;10.93;;;;;;;20.16;100.00;98817.78;4920283;29;20216;-90
2022/06/12 09:30:44;;;;;;;13.77;11.30;;;;;;;20.87;100.00;98943.53;4920880;29;20298;-89
2022/06/12 09:33:34;;;;;;;13.03;10.93;;;;;;;19.29;100.00;98681.06;4920498;29;20230;-89
2022/06/12 09:36:46;;;;;;;16.33;12.23;;;;;;;20.27;100.00;98826.31;4911984;29;20189;-88
2022/06/12 09:39:46;;;;;;;14.80;11.37;;;;;;;20.83;100.00;98951.25;4917836;29;20264;-89
2022/06/12 09:42:22;;;;;;;15.43;10.77;;;;;;;20.86;100.00;98940.94;4866067;29;20263;-88
2022/06/12 09:45:02;;;;;;;13.87;10.33;;;;;;;20.80;100.00;98900.66;4847322;29;20191;-88
2022/06/12 09:47:56;;;;;;;15.57;12.10;;;;;;;21.20;100.00;98946.81;4851091;29;20379;-87
2022/06/12 09:50:49;;;;;;;12.03;9.77;;;;;;;20.17;100.00;98786.06;4829674;29;20303;-87
2022/06/12 09:53:48;;;;;;;11.00;8.67;;;;;;;21.24;100.00;98943.34;4831146;29;20275;-87
2022/06/12 09:56:20;;;;;;;9.57;8.17;;;;;;;21.15;100.00;98915.97;4847986;29;20209;-88
2022/06/12 09:59:07;;;;;;;10.10;7.70;;;;;;;21.33;100.00;98959.59;4839618;29;20216;-88
2022/06/12 10:01:38;;;;;;;10.47;8.50;;;;;;;21.13;100.00;98879.03;4831137;29;20324;-89
2022/06/12 10:04:13;;;;;;;10.23;8.50;;;;;;;19.43;100.00;98575.78;4832141;29;20205;-88
2022/06/12 10:06:45;;;;;;;10.83;8.97;;;;;;;21.97;100.00;98960.00;4860987;29;20220;-94
2022/06/12 10:09:29;;;;;;;8.70;7.23;;;;;;;21.78;100.00;98968.72;4835689;29;20246;-88
2022/06/12 10:12:03;;;;;;;8.30;6.83;;;;;;;21.79;100.00;98970.41;4850800;29;20204;-88
2022/06/12 10:14:45;;;;;;;10.73;8.37;;;;;;;20.30;100.00;98707.22;4849569;29;20208;-89
2022/06/12 10:17:32;;;;;;;8.63;6.50;;;;;;;21.94;100.00;98966.91;4835535;29;20200;-88
2022/06/12 10:20:24;;;;;;;9.47;7.50;;;;;;;21.74;100.00;98884.56;4892757;29;20205;-88
2022/06/12 10:22:53;;;;;;;8.53;6.60;;;;;;;21.92;100.00;98963.47;4901947;29;20194;-88
2022/06/12 10:25:21;;;;;;;7.67;6.97;;;;;;;21.67;100.00;98909.53;4903414;29;20189;-87
2022/06/12 10:28:07;;;;;;;9.10;7.73;;;;;;;21.81;100.00;98960.13;4969268;28;20203;-86
2022/06/12 10:30:32;;;;;;;9.50;7.20;;;;;;;21.59;100.00;98962.84;4998959;28;20199;-86
2022/06/12 10:33:13;;;;;;;11.33;7.70;;;;;;;21.62;100.00;98962.81;4977467;28;20202;-87
2022/06/12 10:35:47;;;;;;;11.90;8.60;;;;;;;20.79;100.00;98818.34;5000447;28;20275;-87
2022/06/12 10:38:13;;;;;;;11.13;8.23;;;;;;;21.43;100.00;98960.38;4991318;28;20213;-86
2022/06/12 10:40:58;;;;;;;11.67;8.87;;;;;;;21.54;100.00;98949.13;5003857;28;20179;-86
2022/06/12 10:43:35;;;;;;;9.77;7.70;;;;;;;21.52;100.00;98961.19;4999178;28;20663;-86
2022/06/12 10:46:23;;;;;;;9.37;7.50;;;;;;;21.87;100.00;98950.63;4996427;28;20241;-86
2022/06/12 10:49:05;;;;;;;9.70;8.07;;;;;;;21.93;100.00;98952.28;4999883;28;20597;-86
2022/06/12 10:51:40;;;;;;;9.90;7.53;;;;;;;21.87;100.00;98949.75;5002284;28;20179;-87
2022/06/12 10:54:22;;;;;;;11.90;8.30;;;;;;;19.59;100.00;98597.09;4986945;28;20217;-87
2022/06/12 10:57:03;;;;;;;10.77;8.57;;;;;;;21.45;100.00;98948.38;5001907;28;20195;-86
2022/06/12 10:59:31;;;;;;;10.67;8.13;;;;;;;21.71;100.00;98946.44;5007571;28;20182;-87
2022/06/12 11:02:34;;;;;;;9.93;8.73;;;;;;;21.83;100.00;98958.38;4999322;28;20223;-85
2022/06/12 11:05:05;;;;;;;11.10;8.07;;;;;;;21.33;100.00;98799.94;4987080;28;20263;-85
2022/06/12 11:07:49;;;;;;;9.87;7.93;;;;;;;20.94;100.00;98759.03;5003727;28;20992;-86
2022/06/12 11:10:50;;;;;;;9.60;7.53;;;;;;;21.42;100.00;98899.44;5000828;28;20202;-84
2022/06/12 11:13:59;;;;;;;11.67;8.03;;;;;;;21.71;100.00;98951.59;4901315;29;20194;-86
2022/06/12 11:16:43;;;;;;;9.90;7.63;;;;;;;21.44;100.00;98950.09;4898030;29;20202;-85
2022/06/12 11:19:36;;;;;;;11.27;7.97;;;;;;;21.14;100.00;98948.56;4898444;29;20221;-87
2022/06/12 11:22:39;;;;;;;12.17;7.70;;;;;;;21.21;100.00;98939.06;4898733;29;20198;-87
2022/06/12 11:25:32;;;;;;;10.60;7.90;;;;;;;21.15;100.00;98942.53;4830064;29;20211;-85
2022/06/12 11:28:10;;;;;;;11.40;7.60;;;;;;;21.02;100.00;98932.28;4805529;29;20265;-85
2022/06/12 11:30:57;;;;;;;10.77;8.10;;;;;;;21.28;100.00;98934.75;4842197;29;20261;-86
2022/06/12 11:33:51;;;;;;;11.07;8.00;;;;;;;21.11;100.00;98930.56;4829745;29;20196;-85
2022/06/12 11:36:42;;;;;;;11.27;8.53;;;;;;;20.90;100.00;98940.94;4836578;29;20207;-85
2022/06/12 11:39:31;;;;;;;10.13;8.27;;;;;;;20.49;100.00;98863.94;4833050;29;20572;-85
2022/06/12 11:42:22;;;;;;;8.13;6.63;;;;;;;19.59;100.00;98781.97;4834000;29;20215;-86
2022/06/12 11:45:10;;;;;;;9.53;7.50;;;;;;;20.45;100.00;98902.53;4829854;29;20294;-88
2022/06/12 11:47:41;;;;;;;9.93;8.50;;;;;;;20.70;100.00;98929.88;4843042;29;20249;-85
2022/06/12 11:50:23;;;;;;;9.83;8.20;;;;;;;20.55;100.00;98925.66;4874211;29;20339;-85
2022/06/12 11:52:51;;;;;;;8.27;7.10;;;;;;;20.63;100.00;98945.34;4898823;29;20269;-85
2022/06/12 11:55:41;;;;;;;8.77;7.87;;;;;;;20.77;100.00;98940.97;4901799;29;20186;-86
2022/06/12 11:58:44;;;;;;;10.03;8.13;;;;;;;20.67;100.00;98934.16;4898592;29;20235;-85
2022/06/12 12:01:35;;;;;;;9.10;8.07;;;;;;;20.88;100.00;98957.22;4858737;29;20233;-86